Terminal Aerodrome Forecast
Issued by NWS

Home | Current Version | Previous Version | Text Only | Print | Product List | Glossary On
Versions: 1 2 3 4 5 6 7 8 9 10 11 12 13 14 15 16
000
FTUS45 KMSO 202340
TAFSMN
TAF
KSMN 202340Z 2100/2124 VRB04KT P6SM BKN150
     FM211000 VRB03KT P6SM VCSH OVC050
     FM211300 27007KT P6SM -RA OVC035
     FM211700 33007KT P6SM VCSH BKN050
      AMD LTD TO CLD VIS AND WIND=

USA.gov is the U.S. government's official web portal to all federal, state and local government web resources and services.